IBE2KC LEMD-LEPA
Flight info
| Callsign | IBE2KC |
|---|---|
| Flight time | 0h 58m |
| Altitude | 30000 |
| Route | NANDO T257 FENXE/N0400F320 T257 LASPO/N0360F260 M871 GODOX |
| Aircraft | A20N/M-SDE2E3FGHIRWXY/LB1 |
Departure
| Time | 2026-05-05 16:50 |
|---|---|
| Airport | Adolfo Suárez Madrid–Barajas Airport (LEMD) |
Arrival
| Time | 2026-05-05 17:48 |
|---|---|
| Airport | Palma de Mallorca Airport (LEPA) |
| Time | Latitude | Longitude | Altitude | Speed | Heading |
|---|---|---|---|---|---|
| 2026-05-05 16:26 | 40.49347 | -3.58964 | 2022 ft | 0 kts | 271° |
| 2026-05-05 16:34 | 40.49347 | -3.58960 | 2022 ft | 1 kts | 271° |
| 2026-05-05 16:34 | 40.49347 | -3.58953 | 2031 ft | 1 kts | 271° |
| 2026-05-05 16:35 | 40.49346 | -3.58946 | 2031 ft | 0 kts | 271° |
| 2026-05-05 16:35 | 40.49346 | -3.58938 | 2024 ft | 1 kts | 271° |
| 2026-05-05 16:35 | 40.49346 | -3.58928 | 2025 ft | 1 kts | 271° |
| 2026-05-05 16:35 | 40.49346 | -3.58918 | 2029 ft | 1 kts | 271° |
| 2026-05-05 16:36 | 40.49346 | -3.58909 | 2029 ft | 1 kts | 271° |
| 2026-05-05 16:36 | 40.49346 | -3.58905 | 2029 ft | 0 kts | 271° |
| 2026-05-05 16:37 | 40.49346 | -3.58896 | 2029 ft | 1 kts | 271° |
| 2026-05-05 16:37 | 40.49347 | -3.58880 | 2030 ft | 2 kts | 225° |
| 2026-05-05 16:38 | 40.49365 | -3.58874 | 2029 ft | 4 kts | 157° |
| 2026-05-05 16:38 | 40.49377 | -3.58882 | 2026 ft | 3 kts | 179° |
| 2026-05-05 16:38 | 40.49364 | -3.58883 | 2030 ft | 1 kts | 181° |
| 2026-05-05 16:38 | 40.49356 | -3.58883 | 2032 ft | 2 kts | 181° |
| 2026-05-05 16:39 | 40.49338 | -3.58883 | 2031 ft | 0 kts | 181° |
| 2026-05-05 16:41 | 40.49330 | -3.58883 | 2026 ft | 3 kts | 179° |
| 2026-05-05 16:41 | 40.49277 | -3.58882 | 2029 ft | 12 kts | 179° |
| 2026-05-05 16:41 | 40.49161 | -3.58882 | 2022 ft | 20 kts | 180° |
| 2026-05-05 16:42 | 40.49010 | -3.58881 | 2022 ft | 24 kts | 179° |
| 2026-05-05 16:42 | 40.48835 | -3.58879 | 2022 ft | 26 kts | 179° |
| 2026-05-05 16:42 | 40.48761 | -3.58849 | 2022 ft | 10 kts | 115° |
| 2026-05-05 16:42 | 40.48759 | -3.58734 | 2022 ft | 16 kts | 89° |
| 2026-05-05 16:43 | 40.48760 | -3.58555 | 2018 ft | 23 kts | 89° |
| 2026-05-05 16:43 | 40.48760 | -3.58309 | 2012 ft | 30 kts | 89° |
| 2026-05-05 16:43 | 40.48776 | -3.58065 | 2002 ft | 17 kts | 47° |
| 2026-05-05 16:43 | 40.48858 | -3.58013 | 2001 ft | 8 kts | 69° |
| 2026-05-05 16:44 | 40.48856 | -3.57941 | 1999 ft | 12 kts | 88° |
| 2026-05-05 16:44 | 40.48857 | -3.57782 | 1993 ft | 22 kts | 90° |
| 2026-05-05 16:44 | 40.48858 | -3.57558 | 1989 ft | 28 kts | 89° |
| 2026-05-05 16:44 | 40.48859 | -3.57276 | 1984 ft | 33 kts | 89° |
| 2026-05-05 16:45 | 40.48861 | -3.56954 | 1978 ft | 37 kts | 90° |
| 2026-05-05 16:45 | 40.48862 | -3.56598 | 1971 ft | 40 kts | 89° |
| 2026-05-05 16:45 | 40.48862 | -3.56319 | 1963 ft | 14 kts | 90° |
| 2026-05-05 16:45 | 40.48931 | -3.56245 | 1961 ft | 16 kts | 357° |
| 2026-05-05 16:46 | 40.49048 | -3.56248 | 1961 ft | 18 kts | 356° |
| 2026-05-05 16:46 | 40.49179 | -3.56245 | 1961 ft | 20 kts | 359° |
| 2026-05-05 16:46 | 40.49328 | -3.56247 | 1961 ft | 23 kts | 359° |
| 2026-05-05 16:46 | 40.49492 | -3.56250 | 1961 ft | 25 kts | 357° |
| 2026-05-05 16:47 | 40.49663 | -3.56248 | 1961 ft | 25 kts | 359° |
| 2026-05-05 16:47 | 40.49835 | -3.56250 | 1961 ft | 25 kts | 2° |
| 2026-05-05 16:47 | 40.49982 | -3.56257 | 1961 ft | 19 kts | 3° |
| 2026-05-05 16:47 | 40.50028 | -3.56135 | 1958 ft | 18 kts | 89° |
| 2026-05-05 16:48 | 40.50028 | -3.56101 | 1958 ft | 0 kts | 90° |
| 2026-05-05 16:48 | 40.50028 | -3.56094 | 1958 ft | 4 kts | 90° |
| 2026-05-05 16:48 | 40.50035 | -3.56026 | 1964 ft | 10 kts | 73° |
| 2026-05-05 16:48 | 40.50085 | -3.55948 | 1959 ft | 13 kts | 27° |
| 2026-05-05 16:49 | 40.50170 | -3.55921 | 1960 ft | 8 kts | 359° |
| 2026-05-05 16:49 | 40.50227 | -3.55921 | 1961 ft | 13 kts | 0° |
| 2026-05-05 16:49 | 40.50496 | -3.55924 | 1964 ft | 72 kts | 358° |
| 2026-05-05 16:49 | 40.51209 | -3.55929 | 1954 ft | 130 kts | 359° |
| 2026-05-05 16:50 | 40.52253 | -3.55926 | 2112 ft | 161 kts | 355° |
| 2026-05-05 16:50 | 40.53436 | -3.55905 | 2491 ft | 178 kts | 355° |
| 2026-05-05 16:50 | 40.54719 | -3.55879 | 3025 ft | 189 kts | 359° |
| 2026-05-05 16:50 | 40.55974 | -3.55434 | 3809 ft | 187 kts | 21° |
| 2026-05-05 16:51 | 40.57107 | -3.54689 | 4594 ft | 181 kts | 23° |
| 2026-05-05 16:51 | 40.58223 | -3.53893 | 5172 ft | 186 kts | 25° |
| 2026-05-05 16:51 | 40.59373 | -3.53012 | 5665 ft | 201 kts | 28° |
| 2026-05-05 16:51 | 40.60568 | -3.51905 | 6291 ft | 214 kts | 35° |
| 2026-05-05 16:52 | 40.61762 | -3.50635 | 6905 ft | 229 kts | 36° |
| 2026-05-05 16:52 | 40.63042 | -3.49255 | 7483 ft | 246 kts | 37° |
| 2026-05-05 16:52 | 40.64423 | -3.47761 | 7965 ft | 260 kts | 38° |
| 2026-05-05 16:52 | 40.65762 | -3.46267 | 8315 ft | 249 kts | 39° |
| 2026-05-05 16:53 | 40.67062 | -3.44770 | 8556 ft | 250 kts | 39° |
| 2026-05-05 16:53 | 40.68403 | -3.43182 | 8746 ft | 273 kts | 40° |
| 2026-05-05 16:53 | 40.69824 | -3.41460 | 8955 ft | 277 kts | 41° |
| 2026-05-05 16:53 | 40.71180 | -3.39649 | 9378 ft | 281 kts | 51° |
| 2026-05-05 16:54 | 40.72061 | -3.37367 | 10111 ft | 285 kts | 76° |
| 2026-05-05 16:54 | 40.72151 | -3.34769 | 10899 ft | 286 kts | 103° |
| 2026-05-05 16:54 | 40.71310 | -3.32439 | 11756 ft | 281 kts | 133° |
| 2026-05-05 16:54 | 40.70174 | -3.30368 | 12888 ft | 280 kts | 116° |
| 2026-05-05 16:55 | 40.69759 | -3.27900 | 14040 ft | 275 kts | 88° |
| 2026-05-05 16:55 | 40.70216 | -3.25526 | 15109 ft | 263 kts | 58° |
| 2026-05-05 16:55 | 40.71282 | -3.23572 | 15812 ft | 270 kts | 51° |
| 2026-05-05 16:55 | 40.72475 | -3.21570 | 16276 ft | 283 kts | 41° |
| 2026-05-05 16:56 | 40.73866 | -3.19652 | 16784 ft | 299 kts | 55° |
| 2026-05-05 16:56 | 40.74675 | -3.17116 | 17299 ft | 312 kts | 80° |
| 2026-05-05 16:56 | 40.74659 | -3.14223 | 17815 ft | 322 kts | 105° |
| 2026-05-05 16:56 | 40.73771 | -3.11507 | 18333 ft | 327 kts | 129° |
| 2026-05-05 16:57 | 40.72144 | -3.09435 | 18787 ft | 328 kts | 153° |
| 2026-05-05 16:57 | 40.70031 | -3.08320 | 19251 ft | 329 kts | 172° |
| 2026-05-05 16:57 | 40.67760 | -3.07821 | 19723 ft | 333 kts | 178° |
| 2026-05-05 16:57 | 40.65460 | -3.07465 | 20191 ft | 333 kts | 179° |
| 2026-05-05 16:58 | 40.63144 | -3.07139 | 20664 ft | 335 kts | 179° |
| 2026-05-05 16:58 | 40.60820 | -3.06784 | 21146 ft | 341 kts | 173° |
| 2026-05-05 16:58 | 40.58577 | -3.05627 | 21666 ft | 356 kts | 151° |
| 2026-05-05 16:58 | 40.56729 | -3.03407 | 22343 ft | 367 kts | 131° |
| 2026-05-05 16:59 | 40.55438 | -3.00971 | 22915 ft | 374 kts | 126° |
| 2026-05-05 16:59 | 40.54083 | -2.98034 | 23548 ft | 378 kts | 124° |
| 2026-05-05 16:59 | 40.52719 | -2.95044 | 24082 ft | 382 kts | 125° |
| 2026-05-05 16:59 | 40.51314 | -2.92061 | 24617 ft | 386 kts | 126° |
| 2026-05-05 17:00 | 40.49887 | -2.89117 | 25130 ft | 389 kts | 127° |
| 2026-05-05 17:00 | 40.48386 | -2.86080 | 25612 ft | 394 kts | 127° |
| 2026-05-05 17:00 | 40.46901 | -2.83101 | 26176 ft | 396 kts | 127° |
| 2026-05-05 17:00 | 40.45379 | -2.80062 | 26652 ft | 400 kts | 128° |
| 2026-05-05 17:01 | 40.43849 | -2.77009 | 27157 ft | 403 kts | 128° |
| 2026-05-05 17:01 | 40.42297 | -2.73914 | 27609 ft | 406 kts | 128° |
| 2026-05-05 17:01 | 40.40744 | -2.70820 | 28007 ft | 412 kts | 128° |
| 2026-05-05 17:01 | 40.39141 | -2.67637 | 28143 ft | 425 kts | 128° |
| 2026-05-05 17:02 | 40.37482 | -2.64346 | 28290 ft | 437 kts | 128° |
| 2026-05-05 17:02 | 40.35798 | -2.61001 | 28656 ft | 442 kts | 128° |
| 2026-05-05 17:02 | 40.34110 | -2.57640 | 29165 ft | 443 kts | 128° |
| 2026-05-05 17:02 | 40.32400 | -2.54247 | 29532 ft | 448 kts | 128° |
| 2026-05-05 17:03 | 40.30674 | -2.50829 | 29866 ft | 451 kts | 129° |
| 2026-05-05 17:03 | 40.28937 | -2.47392 | 29943 ft | 455 kts | 129° |
| 2026-05-05 17:03 | 40.27159 | -2.43887 | 29943 ft | 468 kts | 129° |
| 2026-05-05 17:03 | 40.25334 | -2.40294 | 29932 ft | 480 kts | 129° |
| 2026-05-05 17:04 | 40.23470 | -2.36624 | 29940 ft | 491 kts | 128° |
| 2026-05-05 17:04 | 40.21562 | -2.32868 | 29942 ft | 501 kts | 128° |
| 2026-05-05 17:04 | 40.17656 | -2.25181 | 29939 ft | 509 kts | 128° |
| 2026-05-05 17:05 | 40.13736 | -2.17483 | 29947 ft | 509 kts | 128° |
| 2026-05-05 17:05 | 40.09810 | -2.09806 | 29935 ft | 508 kts | 129° |
| 2026-05-05 17:06 | 40.05870 | -2.02123 | 29935 ft | 509 kts | 129° |
| 2026-05-05 17:06 | 40.01950 | -1.94496 | 29930 ft | 509 kts | 129° |
| 2026-05-05 17:07 | 39.97999 | -1.86829 | 29930 ft | 510 kts | 129° |
| 2026-05-05 17:07 | 39.94036 | -1.79156 | 29934 ft | 510 kts | 129° |
| 2026-05-05 17:08 | 39.90075 | -1.71508 | 29928 ft | 510 kts | 129° |
| 2026-05-05 17:08 | 39.86102 | -1.63853 | 29918 ft | 510 kts | 129° |
| 2026-05-05 17:09 | 39.82130 | -1.56216 | 29921 ft | 510 kts | 130° |
| 2026-05-05 17:09 | 39.78157 | -1.48599 | 29929 ft | 509 kts | 130° |
| 2026-05-05 17:10 | 39.74179 | -1.40991 | 29939 ft | 509 kts | 130° |
| 2026-05-05 17:10 | 39.70195 | -1.33388 | 29953 ft | 509 kts | 130° |
| 2026-05-05 17:11 | 39.66207 | -1.25797 | 29959 ft | 508 kts | 130° |
| 2026-05-05 17:11 | 39.62228 | -1.18236 | 29903 ft | 508 kts | 130° |
| 2026-05-05 17:12 | 39.58882 | -1.11897 | 29828 ft | 507 kts | 130° |
| 2026-05-05 17:12 | 39.54919 | -1.04405 | 29756 ft | 507 kts | 130° |
| 2026-05-05 17:13 | 39.50933 | -0.96883 | 29670 ft | 505 kts | 130° |
| 2026-05-05 17:13 | 39.46948 | -0.89385 | 29587 ft | 506 kts | 130° |
| 2026-05-05 17:14 | 39.42963 | -0.81903 | 29665 ft | 505 kts | 131° |
| 2026-05-05 17:14 | 39.40969 | -0.78165 | 29855 ft | 504 kts | 131° |
| 2026-05-05 17:14 | 39.38980 | -0.74442 | 29862 ft | 505 kts | 131° |
| 2026-05-05 17:15 | 39.37189 | -0.70504 | 29869 ft | 513 kts | 120° |
| 2026-05-05 17:15 | 39.35967 | -0.66114 | 29862 ft | 523 kts | 109° |
| 2026-05-05 17:15 | 39.35386 | -0.61447 | 29859 ft | 530 kts | 97° |
| 2026-05-05 17:15 | 39.35358 | -0.60802 | 29863 ft | 531 kts | 95° |
| 2026-05-05 17:16 | 39.35554 | -0.52550 | 29859 ft | 535 kts | 90° |
| 2026-05-05 17:16 | 39.35881 | -0.42956 | 29856 ft | 534 kts | 91° |
| 2026-05-05 17:17 | 39.36066 | -0.33359 | 29859 ft | 534 kts | 92° |
| 2026-05-05 17:17 | 39.36201 | -0.23755 | 29858 ft | 535 kts | 92° |
| 2026-05-05 17:18 | 39.36324 | -0.14209 | 29861 ft | 535 kts | 92° |
| 2026-05-05 17:18 | 39.36441 | -0.04581 | 29862 ft | 536 kts | 92° |
| 2026-05-05 17:19 | 39.36550 | 0.05105 | 29864 ft | 547 kts | 92° |
| 2026-05-05 17:19 | 39.36654 | 0.14947 | 29861 ft | 548 kts | 92° |
| 2026-05-05 17:20 | 39.36753 | 0.24789 | 29868 ft | 548 kts | 92° |
| 2026-05-05 17:20 | 39.36799 | 0.29877 | 29863 ft | 548 kts | 92° |
| 2026-05-05 17:21 | 39.36867 | 0.36518 | 29867 ft | 548 kts | 92° |
| 2026-05-05 17:22 | 39.36973 | 0.51288 | 29867 ft | 547 kts | 92° |
| 2026-05-05 17:22 | 39.37036 | 0.61126 | 29878 ft | 547 kts | 92° |
| 2026-05-05 17:23 | 39.37094 | 0.70971 | 29873 ft | 547 kts | 92° |
| 2026-05-05 17:23 | 39.37143 | 0.80802 | 29884 ft | 547 kts | 92° |
| 2026-05-05 17:24 | 39.37184 | 0.90633 | 29878 ft | 547 kts | 92° |
| 2026-05-05 17:24 | 39.37217 | 1.00461 | 29880 ft | 546 kts | 92° |
| 2026-05-05 17:25 | 39.37241 | 1.10268 | 29883 ft | 546 kts | 93° |
| 2026-05-05 17:25 | 39.37257 | 1.20071 | 29886 ft | 545 kts | 93° |
| 2026-05-05 17:25 | 39.37263 | 1.24949 | 29602 ft | 538 kts | 93° |
| 2026-05-05 17:26 | 39.37267 | 1.29756 | 28707 ft | 531 kts | 93° |
| 2026-05-05 17:26 | 39.37268 | 1.34494 | 27737 ft | 523 kts | 93° |
| 2026-05-05 17:26 | 39.37273 | 1.39153 | 26760 ft | 515 kts | 91° |
| 2026-05-05 17:26 | 39.37596 | 1.43734 | 25786 ft | 510 kts | 82° |
| 2026-05-05 17:27 | 39.38194 | 1.48216 | 24856 ft | 502 kts | 81° |
| 2026-05-05 17:27 | 39.38784 | 1.52623 | 23946 ft | 494 kts | 81° |
| 2026-05-05 17:27 | 39.39359 | 1.56959 | 22990 ft | 486 kts | 81° |
| 2026-05-05 17:27 | 39.39922 | 1.61232 | 22016 ft | 477 kts | 82° |
| 2026-05-05 17:28 | 39.40473 | 1.65424 | 21064 ft | 469 kts | 82° |
| 2026-05-05 17:28 | 39.41012 | 1.69542 | 20121 ft | 462 kts | 82° |
| 2026-05-05 17:28 | 39.41540 | 1.73601 | 19373 ft | 452 kts | 82° |
| 2026-05-05 17:28 | 39.42057 | 1.77600 | 19052 ft | 454 kts | 82° |
| 2026-05-05 17:29 | 39.42574 | 1.81625 | 18917 ft | 454 kts | 82° |
| 2026-05-05 17:29 | 39.43092 | 1.85649 | 18879 ft | 453 kts | 82° |
| 2026-05-05 17:29 | 39.43609 | 1.89678 | 18880 ft | 454 kts | 82° |
| 2026-05-05 17:29 | 39.44122 | 1.93674 | 18782 ft | 447 kts | 83° |
| 2026-05-05 17:30 | 39.44627 | 1.97619 | 18244 ft | 442 kts | 83° |
| 2026-05-05 17:30 | 39.45133 | 2.01521 | 17472 ft | 437 kts | 81° |
| 2026-05-05 17:30 | 39.45936 | 2.05278 | 16595 ft | 431 kts | 72° |
| 2026-05-05 17:30 | 39.46908 | 2.08912 | 15719 ft | 423 kts | 72° |
| 2026-05-05 17:31 | 39.47850 | 2.12465 | 15179 ft | 415 kts | 72° |
| 2026-05-05 17:31 | 39.48781 | 2.15994 | 15007 ft | 408 kts | 72° |
| 2026-05-05 17:31 | 39.49679 | 2.19409 | 14856 ft | 393 kts | 72° |
| 2026-05-05 17:31 | 39.50537 | 2.22677 | 14683 ft | 374 kts | 73° |
| 2026-05-05 17:32 | 39.51083 | 2.24757 | 14513 ft | 363 kts | 73° |
| 2026-05-05 17:32 | 39.51890 | 2.27840 | 13979 ft | 357 kts | 73° |
| 2026-05-05 17:32 | 39.52670 | 2.30828 | 13381 ft | 352 kts | 73° |
| 2026-05-05 17:32 | 39.53457 | 2.33853 | 12720 ft | 348 kts | 73° |
| 2026-05-05 17:33 | 39.54215 | 2.36764 | 12110 ft | 343 kts | 72° |
| 2026-05-05 17:33 | 39.55097 | 2.39660 | 11488 ft | 340 kts | 63° |
| 2026-05-05 17:33 | 39.56149 | 2.42335 | 10911 ft | 335 kts | 65° |
| 2026-05-05 17:33 | 39.57084 | 2.45074 | 10381 ft | 329 kts | 67° |
| 2026-05-05 17:34 | 39.57983 | 2.47791 | 9763 ft | 326 kts | 67° |
| 2026-05-05 17:34 | 39.58868 | 2.50482 | 9149 ft | 322 kts | 67° |
| 2026-05-05 17:34 | 39.59745 | 2.53174 | 8514 ft | 319 kts | 67° |
| 2026-05-05 17:34 | 39.60581 | 2.55769 | 8047 ft | 311 kts | 67° |
| 2026-05-05 17:35 | 39.61406 | 2.58351 | 7740 ft | 304 kts | 67° |
| 2026-05-05 17:35 | 39.62205 | 2.60862 | 7473 ft | 292 kts | 67° |
| 2026-05-05 17:35 | 39.62958 | 2.63260 | 6977 ft | 289 kts | 67° |
| 2026-05-05 17:35 | 39.63706 | 2.65672 | 6456 ft | 287 kts | 67° |
| 2026-05-05 17:36 | 39.64446 | 2.68062 | 5927 ft | 285 kts | 67° |
| 2026-05-05 17:36 | 39.65175 | 2.70435 | 5390 ft | 282 kts | 67° |
| 2026-05-05 17:36 | 39.65890 | 2.72767 | 5093 ft | 272 kts | 67° |
| 2026-05-05 17:36 | 39.66570 | 2.74998 | 5010 ft | 266 kts | 67° |
| 2026-05-05 17:37 | 39.67254 | 2.77246 | 5003 ft | 267 kts | 67° |
| 2026-05-05 17:37 | 39.67693 | 2.78688 | 5004 ft | 268 kts | 67° |
| 2026-05-05 17:37 | 39.68622 | 2.81716 | 5002 ft | 268 kts | 67° |
| 2026-05-05 17:37 | 39.69336 | 2.83945 | 4998 ft | 266 kts | 63° |
| 2026-05-05 17:38 | 39.70146 | 2.86100 | 4999 ft | 267 kts | 62° |
| 2026-05-05 17:38 | 39.70967 | 2.88262 | 4996 ft | 268 kts | 62° |
| 2026-05-05 17:38 | 39.71792 | 2.90428 | 4992 ft | 265 kts | 62° |
| 2026-05-05 17:38 | 39.72587 | 2.92521 | 4989 ft | 253 kts | 62° |
| 2026-05-05 17:39 | 39.73373 | 2.94597 | 4989 ft | 258 kts | 62° |
| 2026-05-05 17:39 | 39.74171 | 2.96688 | 4991 ft | 258 kts | 62° |
| 2026-05-05 17:39 | 39.74961 | 2.98761 | 4987 ft | 255 kts | 62° |
| 2026-05-05 17:39 | 39.75739 | 3.00816 | 4982 ft | 248 kts | 62° |
| 2026-05-05 17:40 | 39.76476 | 3.02772 | 4980 ft | 234 kts | 62° |
| 2026-05-05 17:40 | 39.77186 | 3.04674 | 4979 ft | 236 kts | 65° |
| 2026-05-05 17:40 | 39.77466 | 3.06748 | 4897 ft | 234 kts | 97° |
| 2026-05-05 17:40 | 39.76901 | 3.08696 | 4612 ft | 231 kts | 131° |
| 2026-05-05 17:41 | 39.75665 | 3.09913 | 4341 ft | 221 kts | 166° |
| 2026-05-05 17:41 | 39.74199 | 3.10031 | 4094 ft | 208 kts | 199° |
| 2026-05-05 17:41 | 39.72823 | 3.09509 | 3987 ft | 209 kts | 202° |
| 2026-05-05 17:41 | 39.71510 | 3.08745 | 3983 ft | 204 kts | 225° |
| 2026-05-05 17:42 | 39.70605 | 3.07368 | 3979 ft | 200 kts | 238° |
| 2026-05-05 17:42 | 39.69828 | 3.05868 | 3991 ft | 201 kts | 240° |
| 2026-05-05 17:42 | 39.69071 | 3.04333 | 3984 ft | 201 kts | 240° |
| 2026-05-05 17:42 | 39.68308 | 3.02860 | 3994 ft | 200 kts | 237° |
| 2026-05-05 17:43 | 39.67483 | 3.01398 | 3989 ft | 200 kts | 238° |
| 2026-05-05 17:43 | 39.66716 | 2.99888 | 3991 ft | 201 kts | 240° |
| 2026-05-05 17:43 | 39.65982 | 2.98342 | 3905 ft | 200 kts | 241° |
| 2026-05-05 17:43 | 39.65262 | 2.96812 | 3645 ft | 199 kts | 241° |
| 2026-05-05 17:44 | 39.64537 | 2.95268 | 3401 ft | 198 kts | 241° |
| 2026-05-05 17:44 | 39.63827 | 2.93762 | 3137 ft | 198 kts | 241° |
| 2026-05-05 17:44 | 39.63100 | 2.92213 | 2872 ft | 199 kts | 240° |
| 2026-05-05 17:44 | 39.62391 | 2.90706 | 2611 ft | 198 kts | 240° |
| 2026-05-05 17:45 | 39.61672 | 2.89178 | 2357 ft | 199 kts | 240° |
| 2026-05-05 17:45 | 39.60961 | 2.87671 | 2072 ft | 188 kts | 240° |
| 2026-05-05 17:45 | 39.60322 | 2.86313 | 1868 ft | 166 kts | 239° |
| 2026-05-05 17:45 | 39.59744 | 2.85086 | 1639 ft | 153 kts | 239° |
| 2026-05-05 17:46 | 39.59212 | 2.83953 | 1448 ft | 144 kts | 238° |
| 2026-05-05 17:46 | 39.58686 | 2.82840 | 1282 ft | 140 kts | 238° |
| 2026-05-05 17:46 | 39.58201 | 2.81792 | 1057 ft | 134 kts | 237° |
| 2026-05-05 17:46 | 39.57711 | 2.80752 | 892 ft | 134 kts | 238° |
| 2026-05-05 17:47 | 39.57209 | 2.79701 | 658 ft | 142 kts | 237° |
| 2026-05-05 17:47 | 39.56707 | 2.78642 | 459 ft | 132 kts | 236° |
| 2026-05-05 17:47 | 39.56245 | 2.77653 | 334 ft | 129 kts | 237° |
| 2026-05-05 17:47 | 39.55772 | 2.76659 | 198 ft | 127 kts | 238° |
| 2026-05-05 17:48 | 39.55332 | 2.75726 | 38 ft | 114 kts | 238° |
| 2026-05-05 17:48 | 39.55008 | 2.75034 | 38 ft | 60 kts | 238° |
| 2026-05-05 17:48 | 39.54886 | 2.74778 | 36 ft | 18 kts | 239° |
| 2026-05-05 17:48 | 39.54833 | 2.74612 | 36 ft | 21 kts | 255° |
| 2026-05-05 17:49 | 39.54807 | 2.74422 | 35 ft | 22 kts | 265° |
| 2026-05-05 17:49 | 39.54803 | 2.74221 | 38 ft | 23 kts | 266° |
| 2026-05-05 17:49 | 39.54742 | 2.74027 | 36 ft | 24 kts | 240° |
| 2026-05-05 17:49 | 39.54651 | 2.73837 | 38 ft | 26 kts | 240° |
| 2026-05-05 17:50 | 39.54557 | 2.73633 | 36 ft | 27 kts | 239° |
| 2026-05-05 17:50 | 39.54456 | 2.73422 | 36 ft | 28 kts | 238° |
| 2026-05-05 17:50 | 39.54406 | 2.73318 | 37 ft | 10 kts | 238° |
| 2026-05-05 17:50 | 39.54416 | 2.73214 | 38 ft | 11 kts | 335° |
| 2026-05-05 17:51 | 39.54478 | 2.73187 | 38 ft | 7 kts | 345° |
| 2026-05-05 17:51 | 39.54486 | 2.73184 | 38 ft | 0 kts | 345° |
| 2026-05-05 17:51 | 39.54498 | 2.73180 | 38 ft | 0 kts | 346° |